Franzen, Wisconsin
Current Conditions -  °F | °C
As of 10:55 PM on Friday 28 Nov 2014 (Local Time) from KAIG Reporting Station
Haze Haze  
Wind Chill: -14°   Ceiling: 400
Heat Index: -9°   Visibility: 5mi
Dew Point: -10°   Wind: 6mph
Humidity: 96%   Direction: 150°SSE
Pressure: 29.8"   Gusts: NA
Location:  44.8179°N, 89.172°W
Report Text: KAIG 290455Z AUTO 15005KT 5SM BR OVC004 M09/M09 A2980 RMK AO2 T10901095
Loading
Personal Weather Stations






























Interactive Weather Map New forecast layout! Learn more

10-Day Weather Forecast

Advertisements
Track Severe Weather on mobile